sensor_id;sensor_type;location;lat;lon;timestamp;pressure;altitude;pressure_sealevel;temperature;humidity
18755;BME280;35061;47.664;9.166;2023-03-03T00:01:38;101751.91;;;3.93;72.15
18755;BME280;35061;47.664;9.166;2023-03-03T00:04:06;101742.98;;;3.94;72.19
18755;BME280;35061;47.664;9.166;2023-03-03T00:06:34;101751.00;;;3.99;72.28
18755;BME280;35061;47.664;9.166;2023-03-03T00:09:01;101748.16;;;3.99;72.11
18755;BME280;35061;47.664;9.166;2023-03-03T00:11:29;101741.81;;;3.91;72.27
18755;BME280;35061;47.664;9.166;2023-03-03T00:13:57;101743.41;;;3.93;72.26
18755;BME280;35061;47.664;9.166;2023-03-03T00:16:31;101745.05;;;3.90;72.28
18755;BME280;35061;47.664;9.166;2023-03-03T00:19:02;101738.18;;;3.87;72.30
18755;BME280;35061;47.664;9.166;2023-03-03T00:21:41;101739.42;;;3.86;72.44
18755;BME280;35061;47.664;9.166;2023-03-03T00:26:44;101733.02;;;3.82;72.38
18755;BME280;35061;47.664;9.166;2023-03-03T00:31:53;101733.87;;;3.79;72.15
18755;BME280;35061;47.664;9.166;2023-03-03T00:34:26;101740.41;;;3.72;72.00
18755;BME280;35061;47.664;9.166;2023-03-03T00:36:56;101744.55;;;3.64;72.26
18755;BME280;35061;47.664;9.166;2023-03-03T00:39:30;101742.10;;;3.66;72.35
18755;BME280;35061;47.664;9.166;2023-03-03T00:42:00;101747.80;;;3.62;72.27
18755;BME280;35061;47.664;9.166;2023-03-03T00:44:47;101750.28;;;3.57;72.52
18755;BME280;35061;47.664;9.166;2023-03-03T00:47:37;101759.21;;;3.55;72.70
18755;BME280;35061;47.664;9.166;2023-03-03T00:55:28;101751.98;;;3.51;72.79
18755;BME280;35061;47.664;9.166;2023-03-03T00:57:56;101759.70;;;3.46;72.93
18755;BME280;35061;47.664;9.166;2023-03-03T01:00:24;101756.88;;;3.46;72.95
18755;BME280;35061;47.664;9.166;2023-03-03T01:02:52;101752.80;;;3.47;72.90
18755;BME280;35061;47.664;9.166;2023-03-03T01:05:20;101745.15;;;3.48;72.96
18755;BME280;35061;47.664;9.166;2023-03-03T01:07:48;101748.38;;;3.46;72.72
18755;BME280;35061;47.664;9.166;2023-03-03T01:10:16;101750.45;;;3.42;73.06
18755;BME280;35061;47.664;9.166;2023-03-03T01:12:44;101745.21;;;3.41;73.08
18755;BME280;35061;47.664;9.166;2023-03-03T01:15:13;101736.71;;;3.41;73.29
18755;BME280;35061;47.664;9.166;2023-03-03T01:17:42;101735.83;;;3.47;73.45
18755;BME280;35061;47.664;9.166;2023-03-03T01:20:11;101741.45;;;3.51;73.22
18755;BME280;35061;47.664;9.166;2023-03-03T01:22:40;101741.45;;;3.51;73.18
18755;BME280;35061;47.664;9.166;2023-03-03T01:25:08;101740.18;;;3.56;73.40
18755;BME280;35061;47.664;9.166;2023-03-03T01:27:36;101735.73;;;3.58;73.17
18755;BME280;35061;47.664;9.166;2023-03-03T01:30:05;101734.91;;;3.58;73.05
18755;BME280;35061;47.664;9.166;2023-03-03T01:32:33;101742.63;;;3.54;73.51
18755;BME280;35061;47.664;9.166;2023-03-03T01:35:01;101732.95;;;3.51;73.32
18755;BME280;35061;47.664;9.166;2023-03-03T01:37:29;101739.09;;;3.46;73.77
18755;BME280;35061;47.664;9.166;2023-03-03T01:39:57;101738.64;;;3.47;73.70
18755;BME280;35061;47.664;9.166;2023-03-03T01:42:25;101742.70;;;3.50;73.74
18755;BME280;35061;47.664;9.166;2023-03-03T01:48:32;101739.42;;;3.52;74.03
18755;BME280;35061;47.664;9.166;2023-03-03T01:53:45;101741.02;;;3.53;73.99
18755;BME280;35061;47.664;9.166;2023-03-03T01:56:14;101745.87;;;3.56;74.06
18755;BME280;35061;47.664;9.166;2023-03-03T01:58:49;101742.59;;;3.57;73.95
18755;BME280;35061;47.664;9.166;2023-03-03T02:01:23;101734.06;;;3.61;74.04
18755;BME280;35061;47.664;9.166;2023-03-03T02:03:53;101729.16;;;3.65;73.94
18755;BME280;35061;47.664;9.166;2023-03-03T02:06:28;101722.65;;;3.68;73.90
18755;BME280;35061;47.664;9.166;2023-03-03T02:12:01;101725.85;;;3.70;73.94
18755;BME280;35061;47.664;9.166;2023-03-03T02:14:30;101726.24;;;3.72;73.89
18755;BME280;35061;47.664;9.166;2023-03-03T02:16:58;101729.91;;;3.69;73.89
18755;BME280;35061;47.664;9.166;2023-03-03T02:20:02;101734.35;;;3.70;73.99
18755;BME280;35061;47.664;9.166;2023-03-03T02:22:45;101736.35;;;3.73;73.97
18755;BME280;35061;47.664;9.166;2023-03-03T02:25:21;101726.24;;;3.72;73.92
18755;BME280;35061;47.664;9.166;2023-03-03T02:27:53;101727.91;;;3.66;73.82
18755;BME280;35061;47.664;9.166;2023-03-03T02:30:23;101722.35;;;3.59;74.28
18755;BME280;35061;47.664;9.166;2023-03-03T02:32:51;101728.86;;;3.56;74.05
18755;BME280;35061;47.664;9.166;2023-03-03T02:35:31;101729.26;;;3.54;74.17
18755;BME280;35061;47.664;9.166;2023-03-03T02:38:06;101726.02;;;3.56;74.35
18755;BME280;35061;47.664;9.166;2023-03-03T02:40:41;101730.92;;;3.52;74.15
18755;BME280;35061;47.664;9.166;2023-03-03T02:43:10;101733.80;;;3.48;74.25
18755;BME280;35061;47.664;9.166;2023-03-03T02:45:43;101729.78;;;3.45;74.25
18755;BME280;35061;47.664;9.166;2023-03-03T02:48:11;101731.02;;;3.44;74.39
18755;BME280;35061;47.664;9.166;2023-03-03T02:50:39;101723.37;;;3.41;74.54
18755;BME280;35061;47.664;9.166;2023-03-03T02:53:07;101722.91;;;3.43;74.55
18755;BME280;35061;47.664;9.166;2023-03-03T02:55:34;101731.87;;;3.41;74.72
18755;BME280;35061;47.664;9.166;2023-03-03T02:58:02;101720.95;;;3.40;74.58
18755;BME280;35061;47.664;9.166;2023-03-03T03:00:30;101722.95;;;3.39;74.63
18755;BME280;35061;47.664;9.166;2023-03-03T03:02:58;101718.53;;;3.38;74.55
18755;BME280;35061;47.664;9.166;2023-03-03T03:05:26;101717.74;;;3.38;74.47
18755;BME280;35061;47.664;9.166;2023-03-03T03:07:55;101714.90;;;3.38;74.35
18755;BME280;35061;47.664;9.166;2023-03-03T03:10:23;101715.36;;;3.32;74.36
18755;BME280;35061;47.664;9.166;2023-03-03T03:12:51;101712.94;;;3.31;74.49
18755;BME280;35061;47.664;9.166;2023-03-03T03:15:19;101716.17;;;3.33;74.71
18755;BME280;35061;47.664;9.166;2023-03-03T03:17:46;101707.70;;;3.29;74.48
18755;BME280;35061;47.664;9.166;2023-03-03T03:20:14;101714.64;;;3.25;74.71
18755;BME280;35061;47.664;9.166;2023-03-03T03:22:42;101710.59;;;3.22;74.77
18755;BME280;35061;47.664;9.166;2023-03-03T03:25:10;101709.44;;;3.19;74.98
18755;BME280;35061;47.664;9.166;2023-03-03T03:27:37;101709.02;;;3.17;75.00
18755;BME280;35061;47.664;9.166;2023-03-03T03:30:06;101705.41;;;3.17;75.26
18755;BME280;35061;47.664;9.166;2023-03-03T03:32:34;101701.36;;;3.18;75.21
18755;BME280;35061;47.664;9.166;2023-03-03T03:35:01;101707.41;;;3.16;75.33
18755;BME280;35061;47.664;9.166;2023-03-03T03:37:29;101704.60;;;3.16;75.48
18755;BME280;35061;47.664;9.166;2023-03-03T03:39:57;101711.07;;;3.17;75.71
18755;BME280;35061;47.664;9.166;2023-03-03T03:42:24;101701.33;;;3.21;75.68
18755;BME280;35061;47.664;9.166;2023-03-03T03:44:52;101707.73;;;3.26;75.86
18755;BME280;35061;47.664;9.166;2023-03-03T03:47:20;101714.64;;;3.25;75.73
18755;BME280;35061;47.664;9.166;2023-03-03T03:49:48;101706.98;;;3.21;75.85
18755;BME280;35061;47.664;9.166;2023-03-03T03:52:15;101716.73;;;3.17;76.64
18755;BME280;35061;47.664;9.166;2023-03-03T03:54:43;101715.91;;;3.16;76.26
18755;BME280;35061;47.664;9.166;2023-03-03T03:57:11;101711.95;;;3.10;76.99
18755;BME280;35061;47.664;9.166;2023-03-03T03:59:39;101715.20;;;3.09;76.85
18755;BME280;35061;47.664;9.166;2023-03-03T04:02:06;101707.90;;;3.11;77.00
18755;BME280;35061;47.664;9.166;2023-03-03T04:04:34;101708.30;;;3.10;76.94
18755;BME280;35061;47.664;9.166;2023-03-03T04:07:03;101710.35;;;3.09;77.46
18755;BME280;35061;47.664;9.166;2023-03-03T04:09:30;101709.50;;;3.12;77.57
18755;BME280;35061;47.664;9.166;2023-03-03T04:11:58;101713.10;;;3.13;77.23
18755;BME280;35061;47.664;9.166;2023-03-03T04:14:26;101705.41;;;3.17;77.27
18755;BME280;35061;47.664;9.166;2023-03-03T04:16:53;101711.47;;;3.15;77.43
18755;BME280;35061;47.664;9.166;2023-03-03T04:19:21;101717.94;;;3.19;77.46
18755;BME280;35061;47.664;9.166;2023-03-03T04:21:50;101708.59;;;3.23;77.22
18755;BME280;35061;47.664;9.166;2023-03-03T04:24:18;101710.26;;;3.16;77.54
18755;BME280;35061;47.664;9.166;2023-03-03T04:26:45;101707.05;;;3.14;77.58
18755;BME280;35061;47.664;9.166;2023-03-03T04:29:13;101711.47;;;3.15;77.82
18755;BME280;35061;47.664;9.166;2023-03-03T04:31:41;101713.52;;;3.15;77.82
18755;BME280;35061;47.664;9.166;2023-03-03T04:34:09;101714.67;;;3.17;77.63
18755;BME280;35061;47.664;9.166;2023-03-03T04:36:36;101715.91;;;3.16;77.54
18755;BME280;35061;47.664;9.166;2023-03-03T04:39:04;101713.07;;;3.16;77.57
18755;BME280;35061;47.664;9.166;2023-03-03T04:41:32;101712.25;;;3.19;77.42
18755;BME280;35061;47.664;9.166;2023-03-03T04:43:59;101713.46;;;3.18;77.54
18755;BME280;35061;47.664;9.166;2023-03-03T04:46:27;101721.18;;;3.18;77.62
18755;BME280;35061;47.664;9.166;2023-03-03T04:48:55;101710.23;;;3.20;77.74
18755;BME280;35061;47.664;9.166;2023-03-03T04:51:23;101717.13;;;3.19;78.14
18755;BME280;35061;47.664;9.166;2023-03-03T04:53:51;101718.30;;;3.21;77.99
18755;BME280;35061;47.664;9.166;2023-03-03T04:56:18;101715.84;;;3.24;77.79
18755;BME280;35061;47.664;9.166;2023-03-03T04:58:46;101717.02;;;3.30;77.91
18755;BME280;35061;47.664;9.166;2023-03-03T05:01:14;101720.23;;;3.32;77.88
18755;BME280;35061;47.664;9.166;2023-03-03T05:03:42;101727.49;;;3.33;77.60
18755;BME280;35061;47.664;9.166;2023-03-03T05:06:09;101729.52;;;3.32;77.59
18755;BME280;35061;47.664;9.166;2023-03-03T05:08:37;101725.52;;;3.26;77.75
18755;BME280;35061;47.664;9.166;2023-03-03T05:11:05;101725.10;;;3.28;77.79
18755;BME280;35061;47.664;9.166;2023-03-03T05:13:33;101725.95;;;3.25;77.87
18755;BME280;35061;47.664;9.166;2023-03-03T05:16:01;101730.37;;;3.29;77.93
18755;BME280;35061;47.664;9.166;2023-03-03T05:18:29;101736.02;;;3.29;77.94
18755;BME280;35061;47.664;9.166;2023-03-03T05:20:57;101727.55;;;3.26;78.01
18755;BME280;35061;47.664;9.166;2023-03-03T05:23:25;101732.88;;;3.16;78.31
18755;BME280;35061;47.664;9.166;2023-03-03T05:25:53;101731.31;;;3.12;78.34
18755;BME280;35061;47.664;9.166;2023-03-03T05:28:20;101734.62;;;3.06;78.81
18755;BME280;35061;47.664;9.166;2023-03-03T05:30:48;101724.09;;;3.07;78.50
18755;BME280;35061;47.664;9.166;2023-03-03T05:33:16;101732.98;;;3.09;78.52
18755;BME280;35061;47.664;9.166;2023-03-03T05:35:44;101735.83;;;3.09;78.78
18755;BME280;35061;47.664;9.166;2023-03-03T05:38:12;101732.98;;;3.09;78.52
18755;BME280;35061;47.664;9.166;2023-03-03T05:40:40;101733.77;;;3.10;79.04
18755;BME280;35061;47.664;9.166;2023-03-03T05:43:07;101739.42;;;3.10;78.84
18755;BME280;35061;47.664;9.166;2023-03-03T05:45:35;101745.90;;;3.10;78.73
18755;BME280;35061;47.664;9.166;2023-03-03T05:48:03;101739.42;;;3.10;78.80
18755;BME280;35061;47.664;9.166;2023-03-03T05:50:31;101747.08;;;3.13;78.58
18755;BME280;35061;47.664;9.166;2023-03-03T05:52:59;101753.95;;;3.15;78.49
18755;BME280;35061;47.664;9.166;2023-03-03T05:55:27;101753.55;;;3.13;78.62
18755;BME280;35061;47.664;9.166;2023-03-03T05:57:55;101750.73;;;3.13;78.65
18755;BME280;35061;47.664;9.166;2023-03-03T06:00:23;101756.40;;;3.13;78.60
18755;BME280;35061;47.664;9.166;2023-03-03T06:02:50;101754.76;;;3.16;78.82
18755;BME280;35061;47.664;9.166;2023-03-03T06:05:18;101752.30;;;3.18;78.80
18755;BME280;35061;47.664;9.166;2023-03-03T06:07:46;101755.12;;;3.21;78.71
18755;BME280;35061;47.664;9.166;2023-03-03T06:10:14;101754.63;;;3.27;78.69
18755;BME280;35061;47.664;9.166;2023-03-03T06:12:42;101751.78;;;3.30;78.62
18755;BME280;35061;47.664;9.166;2023-03-03T06:15:10;101752.60;;;3.31;78.47
18755;BME280;35061;47.664;9.166;2023-03-03T06:17:38;101749.34;;;3.32;78.60
18755;BME280;35061;47.664;9.166;2023-03-03T06:20:06;101760.62;;;3.36;78.51
18755;BME280;35061;47.664;9.166;2023-03-03T06:22:34;101761.43;;;3.37;78.42
18755;BME280;35061;47.664;9.166;2023-03-03T06:25:02;101763.43;;;3.40;78.48
18755;BME280;35061;47.664;9.166;2023-03-03T06:27:29;101768.69;;;3.41;78.49
18755;BME280;35061;47.664;9.166;2023-03-03T06:29:57;101768.69;;;3.38;78.41
18755;BME280;35061;47.664;9.166;2023-03-03T06:32:25;101778.01;;;3.34;78.51
18755;BME280;35061;47.664;9.166;2023-03-03T06:34:53;101782.49;;;3.35;78.35
18755;BME280;35061;47.664;9.166;2023-03-03T06:37:21;101783.27;;;3.36;78.33
18755;BME280;35061;47.664;9.166;2023-03-03T06:39:48;101788.57;;;3.34;78.24
18755;BME280;35061;47.664;9.166;2023-03-03T06:42:18;101791.77;;;3.36;78.25
18755;BME280;35061;47.664;9.166;2023-03-03T06:44:47;101791.32;;;3.41;78.40
18755;BME280;35061;47.664;9.166;2023-03-03T06:47:15;101796.52;;;3.46;78.32
18755;BME280;35061;47.664;9.166;2023-03-03T06:49:43;101797.37;;;3.43;78.11
18755;BME280;35061;47.664;9.166;2023-03-03T06:52:19;101806.72;;;3.40;78.21
18755;BME280;35061;47.664;9.166;2023-03-03T06:54:50;101803.58;;;3.31;78.62
18755;BME280;35061;47.664;9.166;2023-03-03T06:57:29;101814.02;;;3.38;78.48
18755;BME280;35061;47.664;9.166;2023-03-03T07:00:16;101806.75;;;3.37;78.52
18755;BME280;35061;47.664;9.166;2023-03-03T07:02:46;101807.93;;;3.39;78.25
18755;BME280;35061;47.664;9.166;2023-03-03T07:05:16;101809.92;;;3.42;78.32
18755;BME280;35061;47.664;9.166;2023-03-03T07:07:44;101816.76;;;3.45;78.25
18755;BME280;35061;47.664;9.166;2023-03-03T07:10:24;101819.12;;;3.54;78.08
18755;BME280;35061;47.664;9.166;2023-03-03T07:12:53;101812.21;;;3.58;77.99
18755;BME280;35061;47.664;9.166;2023-03-03T07:15:33;101824.70;;;3.61;77.94
18755;BME280;35061;47.664;9.166;2023-03-03T07:18:01;101825.10;;;3.63;78.03
18755;BME280;35061;47.664;9.166;2023-03-03T07:20:40;101825.49;;;3.65;77.67
18755;BME280;35061;47.664;9.166;2023-03-03T07:23:20;101824.67;;;3.65;77.78
18755;BME280;35061;47.664;9.166;2023-03-03T07:25:50;101827.98;;;3.59;77.49
18755;BME280;35061;47.664;9.166;2023-03-03T07:28:27;101831.21;;;3.58;77.63
18755;BME280;35061;47.664;9.166;2023-03-03T07:30:56;101830.85;;;3.52;78.12
18755;BME280;35061;47.664;9.166;2023-03-03T07:33:27;101835.40;;;3.46;78.35
18755;BME280;35061;47.664;9.166;2023-03-03T07:36:01;101834.19;;;3.43;78.37
18755;BME280;35061;47.664;9.166;2023-03-03T07:38:30;101838.21;;;3.46;78.38
18755;BME280;35061;47.664;9.166;2023-03-03T07:41:02;101831.67;;;3.53;78.15
18755;BME280;35061;47.664;9.166;2023-03-03T07:43:35;101841.35;;;3.55;77.62
18755;BME280;35061;47.664;9.166;2023-03-03T07:48:38;101843.34;;;3.62;77.46
18755;BME280;35061;47.664;9.166;2023-03-03T07:54:16;101853.77;;;3.69;77.16
18755;BME280;35061;47.664;9.166;2023-03-03T07:56:47;101842.85;;;3.67;77.03
18755;BME280;35061;47.664;9.166;2023-03-03T07:59:20;101850.96;;;3.69;76.75
18755;BME280;35061;47.664;9.166;2023-03-03T08:01:56;101852.93;;;3.72;76.63
18755;BME280;35061;47.664;9.166;2023-03-03T08:04:36;101849.69;;;3.73;76.58
18755;BME280;35061;47.664;9.166;2023-03-03T08:07:11;101860.22;;;3.73;76.46
18755;BME280;35061;47.664;9.166;2023-03-03T08:09:47;101858.65;;;3.68;76.24
18755;BME280;35061;47.664;9.166;2023-03-03T08:12:35;101857.05;;;3.63;76.22
18755;BME280;35061;47.664;9.166;2023-03-03T08:15:17;101853.02;;;3.61;76.41
18755;BME280;35061;47.664;9.166;2023-03-03T08:17:46;101857.90;;;3.60;76.56
18755;BME280;35061;47.664;9.166;2023-03-03T08:23:01;101856.13;;;3.77;76.91
18755;BME280;35061;47.664;9.166;2023-03-03T08:25:28;101854.89;;;3.79;76.50
18755;BME280;35061;47.664;9.166;2023-03-03T08:27:56;101866.50;;;3.91;77.06
18755;BME280;35061;47.664;9.166;2023-03-03T08:30:24;101863.95;;;4.04;77.65
18755;BME280;35061;47.664;9.166;2023-03-03T08:32:52;101864.11;;;4.25;78.06
18755;BME280;35061;47.664;9.166;2023-03-03T08:35:19;101858.65;;;4.41;77.74
18755;BME280;35061;47.664;9.166;2023-03-03T08:37:47;101851.16;;;4.55;77.04
18755;BME280;35061;47.664;9.166;2023-03-03T08:40:15;101857.93;;;4.65;76.89
18755;BME280;35061;47.664;9.166;2023-03-03T08:42:43;101854.49;;;4.77;77.15
18755;BME280;35061;47.664;9.166;2023-03-03T08:45:10;101859.17;;;4.91;77.16
18755;BME280;35061;47.664;9.166;2023-03-03T08:47:38;101863.45;;;5.03;76.21
18755;BME280;35061;47.664;9.166;2023-03-03T08:50:06;101867.31;;;5.16;77.00
18755;BME280;35061;47.664;9.166;2023-03-03T08:52:34;101864.89;;;5.15;76.00
18755;BME280;35061;47.664;9.166;2023-03-03T08:55:03;101855.38;;;5.25;76.29
18755;BME280;35061;47.664;9.166;2023-03-03T08:57:33;101863.13;;;5.49;77.07
18755;BME280;35061;47.664;9.166;2023-03-03T09:00:00;101867.84;;;5.59;74.53
18755;BME280;35061;47.664;9.166;2023-03-03T09:02:28;101865.16;;;5.72;75.97
18755;BME280;35061;47.664;9.166;2023-03-03T09:04:56;101866.95;;;5.86;75.68
18755;BME280;35061;47.664;9.166;2023-03-03T09:07:24;101869.73;;;5.90;73.65
18755;BME280;35061;47.664;9.166;2023-03-03T09:09:51;101866.07;;;5.89;73.64
18755;BME280;35061;47.664;9.166;2023-03-03T09:12:33;101873.66;;;5.96;73.11
18755;BME280;35061;47.664;9.166;2023-03-03T09:17:41;101868.75;;;6.20;71.66
18755;BME280;35061;47.664;9.166;2023-03-03T09:22:57;101886.54;;;6.24;72.09
18755;BME280;35061;47.664;9.166;2023-03-03T09:25:30;101877.22;;;6.44;72.88
18755;BME280;35061;47.664;9.166;2023-03-03T09:28:00;101880.91;;;6.61;72.53
18755;BME280;35061;47.664;9.166;2023-03-03T09:30:43;101881.05;;;6.74;70.40
18755;BME280;35061;47.664;9.166;2023-03-03T09:38:33;101890.14;;;6.86;68.71
18755;BME280;35061;47.664;9.166;2023-03-03T09:44:02;101893.41;;;7.04;68.23
18755;BME280;35061;47.664;9.166;2023-03-03T09:52:46;101877.35;;;7.10;67.26
18755;BME280;35061;47.664;9.166;2023-03-03T10:06:58;101880.33;;;7.57;66.05
18755;BME280;35061;47.664;9.166;2023-03-03T10:12:09;101889.23;;;7.59;64.83
18755;BME280;35061;47.664;9.166;2023-03-03T10:17:49;101878.83;;;7.35;64.73
18755;BME280;35061;47.664;9.166;2023-03-03T10:26:04;101876.24;;;7.41;63.70
18755;BME280;35061;47.664;9.166;2023-03-03T10:35:01;101880.59;;;7.29;63.57
18755;BME280;35061;47.664;9.166;2023-03-03T10:37:15;101882.09;;;7.34;64.09
18755;BME280;35061;47.664;9.166;2023-03-03T10:43:41;101878.10;;;7.48;63.75
18755;BME280;35061;47.664;9.166;2023-03-03T10:46:14;101882.13;;;7.50;63.07
18755;BME280;35061;47.664;9.166;2023-03-03T10:49:32;101878.63;;;7.59;63.98
18755;BME280;35061;47.664;9.166;2023-03-03T10:52:16;101871.14;;;7.65;62.43
18755;BME280;35061;47.664;9.166;2023-03-03T10:57:40;101873.27;;;7.61;61.71
18755;BME280;35061;47.664;9.166;2023-03-03T11:05:28;101872.28;;;7.68;62.87
18755;BME280;35061;47.664;9.166;2023-03-03T11:08:00;101874.51;;;7.77;62.51
18755;BME280;35061;47.664;9.166;2023-03-03T11:10:51;101871.47;;;7.84;63.14
18755;BME280;35061;47.664;9.166;2023-03-03T11:13:36;101879.31;;;7.96;63.21
18755;BME280;35061;47.664;9.166;2023-03-03T11:21:47;101869.38;;;8.01;62.33
18755;BME280;35061;47.664;9.166;2023-03-03T11:24:40;101867.77;;;8.00;62.04
18755;BME280;35061;47.664;9.166;2023-03-03T11:27:32;101871.34;;;8.04;62.17
18755;BME280;35061;47.664;9.166;2023-03-03T11:35:40;101859.17;;;8.17;62.16
18755;BME280;35061;47.664;9.166;2023-03-03T11:40:57;101861.16;;;8.33;61.95
18755;BME280;35061;47.664;9.166;2023-03-03T11:44:10;101847.23;;;8.35;61.84
18755;BME280;35061;47.664;9.166;2023-03-03T11:49:38;101851.81;;;8.45;61.57
18755;BME280;35061;47.664;9.166;2023-03-03T11:52:27;101847.59;;;8.50;61.43
18755;BME280;35061;47.664;9.166;2023-03-03T11:56:01;101840.14;;;8.56;61.13
18755;BME280;35061;47.664;9.166;2023-03-03T11:58:18;101844.09;;;8.59;60.91
18755;BME280;35061;47.664;9.166;2023-03-03T12:00:51;101836.15;;;8.67;60.95
18755;BME280;35061;47.664;9.166;2023-03-03T12:03:32;101841.05;;;8.79;61.22
18755;BME280;35061;47.664;9.166;2023-03-03T12:12:13;101816.70;;;9.13;60.09
18755;BME280;35061;47.664;9.166;2023-03-03T12:17:32;101817.80;;;9.29;60.12
18755;BME280;35061;47.664;9.166;2023-03-03T12:39:15;101815.32;;;9.18;59.01
18755;BME280;35061;47.664;9.166;2023-03-03T12:47:26;101827.78;;;8.85;59.38
18755;BME280;35061;47.664;9.166;2023-03-03T13:01:08;101812.97;;;8.35;59.76
18755;BME280;35061;47.664;9.166;2023-03-03T13:06:30;101813.06;;;8.18;59.85
18755;BME280;35061;47.664;9.166;2023-03-03T13:12:02;101814.30;;;8.17;60.58
18755;BME280;35061;47.664;9.166;2023-03-03T13:14:51;101813.42;;;8.20;60.60
18755;BME280;35061;47.664;9.166;2023-03-03T13:17:44;101806.30;;;8.12;60.79
18755;BME280;35061;47.664;9.166;2023-03-03T13:20:21;101799.30;;;8.00;61.00
18755;BME280;35061;47.664;9.166;2023-03-03T13:23:12;101796.91;;;7.99;61.28
18755;BME280;35061;47.664;9.166;2023-03-03T13:26:04;101803.88;;;7.98;61.54
18755;BME280;35061;47.664;9.166;2023-03-03T13:28:41;101799.52;;;7.93;61.42
18755;BME280;35061;47.664;9.166;2023-03-03T13:31:18;101805.22;;;7.93;61.79
18755;BME280;35061;47.664;9.166;2023-03-03T13:33:53;101802.73;;;7.95;61.73
18755;BME280;35061;47.664;9.166;2023-03-03T13:36:50;101805.15;;;7.96;61.65
18755;BME280;35061;47.664;9.166;2023-03-03T13:39:26;101798.12;;;7.85;61.77
18755;BME280;35061;47.664;9.166;2023-03-03T13:42:01;101797.92;;;7.92;61.85
18755;BME280;35061;47.664;9.166;2023-03-03T13:44:39;101798.02;;;7.88;62.04
18755;BME280;35061;47.664;9.166;2023-03-03T13:47:20;101798.48;;;7.87;62.25
18755;BME280;35061;47.664;9.166;2023-03-03T13:52:27;101802.83;;;7.91;62.38
18755;BME280;35061;47.664;9.166;2023-03-03T13:55:48;101799.27;;;7.87;62.42
18755;BME280;35061;47.664;9.166;2023-03-03T14:00:52;101795.80;;;7.79;62.44
18755;BME280;35061;47.664;9.166;2023-03-03T14:06:18;101786.91;;;7.77;62.58
18755;BME280;35061;47.664;9.166;2023-03-03T14:09:37;101788.51;;;7.78;62.56
18755;BME280;35061;47.664;9.166;2023-03-03T14:11:45;101782.72;;;7.82;62.63
18755;BME280;35061;47.664;9.166;2023-03-03T14:14:32;101789.84;;;7.74;62.64
18755;BME280;35061;47.664;9.166;2023-03-03T14:17:28;101787.00;;;7.74;62.55
18755;BME280;35061;47.664;9.166;2023-03-03T14:20:04;101784.71;;;7.68;62.53
18755;BME280;35061;47.664;9.166;2023-03-03T14:22:54;101779.02;;;7.68;62.88
18755;BME280;35061;47.664;9.166;2023-03-03T14:25:23;101776.84;;;7.73;63.00
18755;BME280;35061;47.664;9.166;2023-03-03T14:28:00;101770.36;;;7.72;62.93
18755;BME280;35061;47.664;9.166;2023-03-03T14:33:15;101769.21;;;7.70;63.45
18755;BME280;35061;47.664;9.166;2023-03-03T14:41:12;101769.02;;;7.77;63.67
18755;BME280;35061;47.664;9.166;2023-03-03T14:43:43;101768.20;;;7.76;63.55
18755;BME280;35061;47.664;9.166;2023-03-03T14:46:38;101758.13;;;7.72;63.63
18755;BME280;35061;47.664;9.166;2023-03-03T14:49:15;101765.45;;;7.73;63.75
18755;BME280;35061;47.664;9.166;2023-03-03T14:52:00;101764.57;;;7.76;63.69
18755;BME280;35061;47.664;9.166;2023-03-03T14:54:36;101762.41;;;7.80;63.76
18755;BME280;35061;47.664;9.166;2023-03-03T15:00:08;101769.93;;;7.87;63.62
18755;BME280;35061;47.664;9.166;2023-03-03T15:03:20;101755.25;;;7.88;63.33
18755;BME280;35061;47.664;9.166;2023-03-03T15:05:51;101756.59;;;7.84;63.20
18755;BME280;35061;47.664;9.166;2023-03-03T15:08:30;101756.49;;;7.87;63.35
18755;BME280;35061;47.664;9.166;2023-03-03T15:11:20;101753.98;;;7.89;63.22
18755;BME280;35061;47.664;9.166;2023-03-03T15:13:52;101756.36;;;7.91;63.23
18755;BME280;35061;47.664;9.166;2023-03-03T15:16:22;101749.30;;;7.95;63.42
18755;BME280;35061;47.664;9.166;2023-03-03T15:21:31;101755.25;;;8.01;63.46
18755;BME280;35061;47.664;9.166;2023-03-03T15:30:02;101747.20;;;8.13;63.37
18755;BME280;35061;47.664;9.166;2023-03-03T15:32:42;101753.35;;;8.11;63.34
18755;BME280;35061;47.664;9.166;2023-03-03T15:35:17;101749.23;;;8.12;63.37
18755;BME280;35061;47.664;9.166;2023-03-03T15:38:00;101749.92;;;8.16;63.48
18755;BME280;35061;47.664;9.166;2023-03-03T15:40:38;101751.52;;;8.17;63.48
18755;BME280;35061;47.664;9.166;2023-03-03T15:43:25;101757.12;;;8.21;63.47
18755;BME280;35061;47.664;9.166;2023-03-03T15:49:05;101748.13;;;8.22;63.55
18755;BME280;35061;47.664;9.166;2023-03-03T15:52:00;101749.04;;;8.19;63.50
18755;BME280;35061;47.664;9.166;2023-03-03T15:54:37;101753.16;;;8.18;63.29
18755;BME280;35061;47.664;9.166;2023-03-03T16:03:00;101750.70;;;8.04;63.76
18755;BME280;35061;47.664;9.166;2023-03-03T16:05:53;101755.84;;;7.96;63.84
18755;BME280;35061;47.664;9.166;2023-03-03T16:08:35;101755.58;;;7.90;64.07
18755;BME280;35061;47.664;9.166;2023-03-03T16:16:53;101759.89;;;7.82;64.20
18755;BME280;35061;47.664;9.166;2023-03-03T16:31:10;101764.60;;;7.59;64.50
18755;BME280;35061;47.664;9.166;2023-03-03T16:36:33;101774.15;;;7.52;64.77
18755;BME280;35061;47.664;9.166;2023-03-03T16:50:26;101787.07;;;7.40;65.29
18755;BME280;35061;47.664;9.166;2023-03-03T16:56:13;101796.20;;;7.35;65.56
18755;BME280;35061;47.664;9.166;2023-03-03T17:06:53;101803.84;;;7.22;66.09
18755;BME280;35061;47.664;9.166;2023-03-03T17:17:46;101810.25;;;7.09;66.75
18755;BME280;35061;47.664;9.166;2023-03-03T17:25:45;101822.55;;;7.06;67.14
18755;BME280;35061;47.664;9.166;2023-03-03T17:31:21;101836.09;;;7.02;67.82
18755;BME280;35061;47.664;9.166;2023-03-03T17:37:00;101842.37;;;6.93;68.39
18755;BME280;35061;47.664;9.166;2023-03-03T17:40:22;101843.70;;;6.89;68.73
18755;BME280;35061;47.664;9.166;2023-03-03T17:43:03;101853.94;;;6.86;69.18
18755;BME280;35061;47.664;9.166;2023-03-03T17:45:38;101849.49;;;6.85;68.95
18755;BME280;35061;47.664;9.166;2023-03-03T18:13:38;101875.23;;;6.61;70.20